Southern Sonoma County Latest

20 Stations

15 Minute Data
as of 5/7/26 8:28 AM PDT
Station Date Time Temp (°F) RH (%) Dew Pt (°F) Wind Spd (mph) Wind Dir (°) Wind Gust (mph) Latest Rain (In) Daily Rain (In) Daily Min Temp (°F) Daily Max Temp (°F)
Upper Rincon Valley 5/7/26 0815 49.6   4.4 98   7 49.2   2.4 0.6   0.6 NNE | 17 2.0   0.8 0.00 0.00 48.1   2.6 50.0   4.3
Lower Bennett Valley 5/7/26 0815 50.9   5.6 100   14 50.9   1.5 1.6   0.9 N | 355 3.4   0.7 0.00 0.00 49.9   3.5 51.3   5.5
Kenwood (Wildwood) 5/7/26 0815 50.9   5.9 100   16 50.9   1.3 0.6   1.9 NE | 49 2.2   3.4 0.00 0.00 47.8   5.7 51.6   6.0
Crane Creek (Ranch 62) 5/7/26 0815 51.4   5.6 99   15 51.1   1.2 1.9   1.1 SSW | 192 4.5   2.4 0.00 0.00 50.8   3.1 52.4   4.7
Rohnert Park-West (Stony Point) 5/7/26 0815 51.8   4.2 98   5 51.2   2.7 0.0   0.0 N | 0 0.0   1.8 0.00 0.00 51.2   2.9 53.0   3.4
Rice-Spivak Vineyard 5/7/26 0815 52.3   5.3 - - - - - - - 50.8   2.6 52.6   5.5
Cartograph Wines Base 5/7/26 0815 50.9   4.7 99   6 50.6   3.0 1.3   0.5 NNE | 12 3.7   0.5 0.00 0.00 50.0   3.0 51.9   3.7
Cartograph Wines Remote 5/7/26 0815 52.0   5.0 - - - - - - - 50.9   2.7 52.8   4.3
Penngrove (Asellus) 5/7/26 0815 51.6   6.7 95   14 50.3   2.2 0.9   0.3 WSW | 239 2.8   0.1 0.00 0.00 51.0   3.1 52.9   6.0
Sonoma Valley (Bedrock) 5/7/26 0815 50.9   6.7 95   20 49.5   0.3 - - - 0.00 0.00 48.0   5.8 51.2   6.8
Sonoma-West (Arnold) 5/7/26 0815 52.9   7.0 94   20 51.1   0.3 1.4   0.3 WSW | 245 3.0   0.3 0.00 0.00 48.7   6.3 53.0   7.2
Sonoma Valley HS 5/7/26 0815 52.7   6.1 99   17 52.4   1.0 1.7   0.3 NNE | 20 4.8   0.9 0.00 0.00 51.4   3.6 52.9   6.5
Sonoma East (Bundschu01) 5/7/26 0815 53.0   7.6 93   19 50.9   1.4 2.5   1.7 NW | 308 4.4   2.0 0.00 0.00 50.9   4.0 53.2   7.7
Sonoma-SE (Napoli) 5/7/26 0815 52.9   5.9 93   14 50.9   1.3 1.8   0.4 WSW | 239 4.1   1.0 0.00 0.00 51.5   3.4 53.0   6.2
Schellville (Sasaki) 2/7/26 1900 53.4   2.2 88   10 49.9   1.0 3.3   1.8 SW | 225 5.8   4.0 0.00 0.00 47.0   0.8 62.8   8.4
Petaluma (Ranch 10) 5/7/26 0815 53.0   6.7 91   16 50.4   1.4 2.9   0.0 WNW | 302 5.7   0.5 0.00 0.00 52.2   2.4 53.9   6.0
Carneros (Ranch 71) 5/7/26 0815 51.4   7.9 100   25 51.3   0.1 4.0   2.2 W | 270 7.5   3.6 0.00 0.00 50.8   2.9 51.8   7.8
Ricci Vineyards (Carneros) 5/7/26 0815 52.5   6.7 93   17 50.6   1.1 3.3   0.8 WNW | 282 5.5   0.7 0.00 0.00 51.4   3.2 52.8   6.9
Carneros Upper (Ranch 81) 5/7/26 0815 51.5   7.0 1   77 -54.4   105.7 4.4   4.2 WSW | 254 6.7   4.7 - - 50.9   2.9 51.7   6.7
Carneros Lower (Ranch 81) 5/7/26 0815 53.2   12.1 96   32 52.0   0.9 0.0   0.0 SE | 142 1.8   0.2 0.00 0.00 51.1   3.5 53.2   12.1
Max     53.2 100 52.4 4.4 - 7.5 0.00 0.00 52.2 53.9
Avg     51.9 91 44.6 1.8 - 3.9 0.00 - - -
Min     49.6 1 -54.4 0.0 - 0.0 0.00 0.00 47.8 50.0